sensor_id;sensor_type;location;lat;lon;timestamp;pressure;altitude;pressure_sealevel;temperature;humidity
11114;BME280;5610;52.154;9.198;2023-08-12T00:01:11;100834.28;;;21.41;100.00
11114;BME280;5610;52.154;9.198;2023-08-12T00:03:56;100839.56;;;21.43;100.00
11114;BME280;5610;52.154;9.198;2023-08-12T00:06:43;100831.91;;;21.38;100.00
11114;BME280;5610;52.154;9.198;2023-08-12T00:09:28;100835.84;;;21.44;100.00
11114;BME280;5610;52.154;9.198;2023-08-12T00:12:13;100833.47;;;21.49;100.00
11114;BME280;5610;52.154;9.198;2023-08-12T00:14:59;100831.47;;;21.51;100.00
11114;BME280;5610;52.154;9.198;2023-08-12T00:17:44;100838.41;;;21.53;100.00
11114;BME280;5610;52.154;9.198;2023-08-12T00:20:30;100837.75;;;21.51;100.00
11114;BME280;5610;52.154;9.198;2023-08-12T00:23:16;100834.81;;;21.45;100.00
11114;BME280;5610;52.154;9.198;2023-08-12T00:26:02;100833.22;;;21.34;100.00
11114;BME280;5610;52.154;9.198;2023-08-12T00:28:48;100825.41;;;21.31;100.00
11114;BME280;5610;52.154;9.198;2023-08-12T00:31:33;100829.19;;;21.20;100.00
11114;BME280;5610;52.154;9.198;2023-08-12T00:34:18;100828.66;;;21.17;100.00
11114;BME280;5610;52.154;9.198;2023-08-12T00:37:03;100820.50;;;21.08;100.00
11114;BME280;5610;52.154;9.198;2023-08-12T00:39:50;100812.50;;;21.07;100.00
11114;BME280;5610;52.154;9.198;2023-08-12T00:42:35;100813.28;;;20.99;100.00
11114;BME280;5610;52.154;9.198;2023-08-12T00:45:21;100812.78;;;20.96;100.00
11114;BME280;5610;52.154;9.198;2023-08-12T00:48:07;100807.19;;;20.97;100.00
11114;BME280;5610;52.154;9.198;2023-08-12T00:50:52;100799.03;;;21.15;100.00
11114;BME280;5610;52.154;9.198;2023-08-12T00:53:38;100804.91;;;21.10;100.00
11114;BME280;5610;52.154;9.198;2023-08-12T00:56:26;100806.63;;;21.11;100.00
11114;BME280;5610;52.154;9.198;2023-08-12T00:59:11;100803.94;;;21.20;100.00
11114;BME280;5610;52.154;9.198;2023-08-12T01:01:58;100797.16;;;21.16;100.00
11114;BME280;5610;52.154;9.198;2023-08-12T01:04:43;100795.47;;;21.15;100.00
11114;BME280;5610;52.154;9.198;2023-08-12T01:07:28;100792.59;;;21.16;100.00
11114;BME280;5610;52.154;9.198;2023-08-12T01:10:14;100793.06;;;21.11;100.00
11114;BME280;5610;52.154;9.198;2023-08-12T01:13:08;100782.69;;;21.07;100.00
11114;BME280;5610;52.154;9.198;2023-08-12T01:15:55;100781.84;;;21.06;100.00
11114;BME280;5610;52.154;9.198;2023-08-12T01:18:44;100774.63;;;21.15;100.00
11114;BME280;5610;52.154;9.198;2023-08-12T01:21:29;100775.53;;;21.24;100.00
11114;BME280;5610;52.154;9.198;2023-08-12T01:24:16;100780.34;;;21.30;100.00
11114;BME280;5610;52.154;9.198;2023-08-12T01:27:01;100795.63;;;21.39;100.00
11114;BME280;5610;52.154;9.198;2023-08-12T01:29:49;100798.00;;;21.42;100.00
11114;BME280;5610;52.154;9.198;2023-08-12T01:32:38;100806.22;;;21.50;100.00
11114;BME280;5610;52.154;9.198;2023-08-12T01:35:30;100797.91;;;21.52;100.00
11114;BME280;5610;52.154;9.198;2023-08-12T01:38:18;100788.44;;;21.56;100.00
11114;BME280;5610;52.154;9.198;2023-08-12T01:41:06;100792.53;;;21.60;100.00
11114;BME280;5610;52.154;9.198;2023-08-12T01:43:54;100786.56;;;21.56;100.00
11114;BME280;5610;52.154;9.198;2023-08-12T01:46:42;100800.13;;;21.56;100.00
11114;BME280;5610;52.154;9.198;2023-08-12T01:49:27;100793.84;;;21.56;100.00
11114;BME280;5610;52.154;9.198;2023-08-12T01:52:12;100808.63;;;21.61;100.00
11114;BME280;5610;52.154;9.198;2023-08-12T01:54:57;100807.63;;;21.62;100.00
11114;BME280;5610;52.154;9.198;2023-08-12T01:57:44;100806.59;;;21.63;100.00
11114;BME280;5610;52.154;9.198;2023-08-12T02:00:29;100813.75;;;21.64;100.00
11114;BME280;5610;52.154;9.198;2023-08-12T02:03:15;100812.03;;;21.63;100.00
11114;BME280;5610;52.154;9.198;2023-08-12T02:06:00;100807.63;;;21.62;100.00
11114;BME280;5610;52.154;9.198;2023-08-12T02:08:45;100797.78;;;21.61;100.00
11114;BME280;5610;52.154;9.198;2023-08-12T02:11:30;100797.97;;;21.60;100.00
11114;BME280;5610;52.154;9.198;2023-08-12T02:14:16;100788.28;;;21.57;100.00
11114;BME280;5610;52.154;9.198;2023-08-12T02:17:02;100777.59;;;21.56;100.00
11114;BME280;5610;52.154;9.198;2023-08-12T02:19:49;100777.75;;;21.54;100.00
11114;BME280;5610;52.154;9.198;2023-08-12T02:22:34;100779.63;;;21.54;100.00
11114;BME280;5610;52.154;9.198;2023-08-12T02:25:20;100781.66;;;21.52;100.00
11114;BME280;5610;52.154;9.198;2023-08-12T02:28:05;100792.00;;;21.56;100.00
11114;BME280;5610;52.154;9.198;2023-08-12T02:30:51;100799.13;;;21.57;100.00
11114;BME280;5610;52.154;9.198;2023-08-12T02:33:37;100798.75;;;21.52;100.00
11114;BME280;5610;52.154;9.198;2023-08-12T02:36:22;100808.75;;;21.52;100.00
11114;BME280;5610;52.154;9.198;2023-08-12T02:39:07;100800.81;;;21.50;100.00
11114;BME280;5610;52.154;9.198;2023-08-12T02:41:52;100799.94;;;21.50;100.00
11114;BME280;5610;52.154;9.198;2023-08-12T02:44:37;100814.56;;;21.13;100.00
11114;BME280;5610;52.154;9.198;2023-08-12T02:47:24;100803.91;;;21.11;100.00
11114;BME280;5610;52.154;9.198;2023-08-12T02:50:09;100799.72;;;21.17;100.00
11114;BME280;5610;52.154;9.198;2023-08-12T02:52:54;100806.66;;;21.20;100.00
11114;BME280;5610;52.154;9.198;2023-08-12T02:55:39;100805.34;;;21.24;100.00
11114;BME280;5610;52.154;9.198;2023-08-12T02:58:25;100821.59;;;21.24;100.00
11114;BME280;5610;52.154;9.198;2023-08-12T03:01:10;100819.06;;;21.22;100.00
11114;BME280;5610;52.154;9.198;2023-08-12T03:03:57;100814.16;;;21.26;100.00
11114;BME280;5610;52.154;9.198;2023-08-12T03:06:42;100810.59;;;21.25;100.00
11114;BME280;5610;52.154;9.198;2023-08-12T03:09:28;100818.72;;;21.25;100.00
11114;BME280;5610;52.154;9.198;2023-08-12T03:12:13;100817.72;;;21.26;100.00
11114;BME280;5610;52.154;9.198;2023-08-12T03:14:58;100814.75;;;21.29;100.00
11114;BME280;5610;52.154;9.198;2023-08-12T03:17:45;100802.88;;;21.30;100.00
11114;BME280;5610;52.154;9.198;2023-08-12T03:20:31;100801.03;;;21.31;100.00
11114;BME280;5610;52.154;9.198;2023-08-12T03:23:17;100791.03;;;21.31;100.00
11114;BME280;5610;52.154;9.198;2023-08-12T03:26:02;100805.75;;;21.29;100.00
11114;BME280;5610;52.154;9.198;2023-08-12T03:28:48;100797.06;;;21.25;100.00
11114;BME280;5610;52.154;9.198;2023-08-12T03:31:36;100802.31;;;21.27;100.00
11114;BME280;5610;52.154;9.198;2023-08-12T03:34:22;100792.31;;;21.27;100.00
11114;BME280;5610;52.154;9.198;2023-08-12T03:37:09;100796.63;;;21.30;100.00
11114;BME280;5610;52.154;9.198;2023-08-12T03:39:54;100799.31;;;21.30;100.00
11114;BME280;5610;52.154;9.198;2023-08-12T03:42:39;100791.19;;;21.30;100.00
11114;BME280;5610;52.154;9.198;2023-08-12T03:45:25;100802.16;;;21.28;100.00
11114;BME280;5610;52.154;9.198;2023-08-12T03:48:10;100809.06;;;21.23;100.00
11114;BME280;5610;52.154;9.198;2023-08-12T03:50:56;100811.78;;;21.23;100.00
11114;BME280;5610;52.154;9.198;2023-08-12T03:53:42;100806.66;;;21.20;100.00
11114;BME280;5610;52.154;9.198;2023-08-12T03:56:28;100812.41;;;21.17;100.00
11114;BME280;5610;52.154;9.198;2023-08-12T03:59:14;100811.72;;;21.15;100.00
11114;BME280;5610;52.154;9.198;2023-08-12T04:01:59;100811.03;;;21.12;100.00
11114;BME280;5610;52.154;9.198;2023-08-12T04:04:45;100811.19;;;21.11;100.00
11114;BME280;5610;52.154;9.198;2023-08-12T04:07:31;100816.94;;;21.08;100.00
11114;BME280;5610;52.154;9.198;2023-08-12T04:10:18;100818.06;;;21.05;100.00
11114;BME280;5610;52.154;9.198;2023-08-12T04:13:03;100812.81;;;21.04;100.00
11114;BME280;5610;52.154;9.198;2023-08-12T04:15:51;100812.13;;;21.02;100.00
11114;BME280;5610;52.154;9.198;2023-08-12T04:18:37;100810.44;;;21.01;100.00
11114;BME280;5610;52.154;9.198;2023-08-12T04:21:23;100807.03;;;20.99;100.00
11114;BME280;5610;52.154;9.198;2023-08-12T04:24:09;100814.47;;;20.97;100.00
11114;BME280;5610;52.154;9.198;2023-08-12T04:26:55;100813.63;;;20.96;100.00
11114;BME280;5610;52.154;9.198;2023-08-12T04:29:40;100818.19;;;20.96;100.00
11114;BME280;5610;52.154;9.198;2023-08-12T04:32:26;100811.06;;;20.95;100.00
11114;BME280;5610;52.154;9.198;2023-08-12T04:35:12;100817.63;;;20.92;100.00
11114;BME280;5610;52.154;9.198;2023-08-12T04:37:57;100818.34;;;20.94;100.00
11114;BME280;5610;52.154;9.198;2023-08-12T04:40:43;100806.50;;;20.95;100.00
11114;BME280;5610;52.154;9.198;2023-08-12T04:43:30;100806.34;;;20.97;100.00
11114;BME280;5610;52.154;9.198;2023-08-12T04:46:17;100808.03;;;20.98;100.00
11114;BME280;5610;52.154;9.198;2023-08-12T04:49:02;100802.44;;;20.99;100.00
11114;BME280;5610;52.154;9.198;2023-08-12T04:51:48;100805.72;;;21.03;100.00
11114;BME280;5610;52.154;9.198;2023-08-12T04:54:33;100802.31;;;21.01;100.00
11114;BME280;5610;52.154;9.198;2023-08-12T04:57:18;100792.47;;;21.00;100.00
11114;BME280;5610;52.154;9.198;2023-08-12T05:00:06;100797.03;;;20.99;100.00
11114;BME280;5610;52.154;9.198;2023-08-12T05:02:52;100803.78;;;20.95;100.00
11114;BME280;5610;52.154;9.198;2023-08-12T05:05:37;100798.31;;;20.87;100.00
11114;BME280;5610;52.154;9.198;2023-08-12T05:08:24;100801.31;;;20.84;100.00
11114;BME280;5610;52.154;9.198;2023-08-12T05:11:09;100797.59;;;20.85;100.00
11114;BME280;5610;52.154;9.198;2023-08-12T05:13:54;100801.16;;;20.85;100.00
11114;BME280;5610;52.154;9.198;2023-08-12T05:16:40;100792.19;;;20.85;100.00
11114;BME280;5610;52.154;9.198;2023-08-12T05:19:26;100797.47;;;20.87;100.00
11114;BME280;5610;52.154;9.198;2023-08-12T05:22:11;100791.03;;;20.88;100.00
11114;BME280;5610;52.154;9.198;2023-08-12T05:24:56;100795.28;;;20.90;100.00
11114;BME280;5610;52.154;9.198;2023-08-12T05:27:42;100787.84;;;20.92;100.00
11114;BME280;5610;52.154;9.198;2023-08-12T05:30:27;100788.84;;;20.91;100.00
11114;BME280;5610;52.154;9.198;2023-08-12T05:33:14;100780.72;;;20.91;100.00
11114;BME280;5610;52.154;9.198;2023-08-12T05:35:59;100778.72;;;20.93;100.00
11114;BME280;5610;52.154;9.198;2023-08-12T05:38:44;100775.84;;;20.95;100.00
11114;BME280;5610;52.154;9.198;2023-08-12T05:41:30;100778.56;;;20.95;100.00
11114;BME280;5610;52.154;9.198;2023-08-12T05:44:15;100771.13;;;20.97;100.00
11114;BME280;5610;52.154;9.198;2023-08-12T05:47:00;100778.44;;;21.04;100.00
11114;BME280;5610;52.154;9.198;2023-08-12T05:49:47;100769.34;;;21.13;100.00
11114;BME280;5610;52.154;9.198;2023-08-12T05:52:32;100757.25;;;21.26;100.00
11114;BME280;5610;52.154;9.198;2023-08-12T05:55:18;100767.00;;;21.36;100.00
11114;BME280;5610;52.154;9.198;2023-08-12T05:58:03;100765.34;;;21.44;100.00
11114;BME280;5610;52.154;9.198;2023-08-12T06:00:48;100754.00;;;21.48;100.00
11114;BME280;5610;52.154;9.198;2023-08-12T06:03:34;100761.81;;;21.51;100.00
11114;BME280;5610;52.154;9.198;2023-08-12T06:06:21;100753.69;;;21.51;100.00
11114;BME280;5610;52.154;9.198;2023-08-12T06:09:06;100749.31;;;21.58;100.00
11114;BME280;5610;52.154;9.198;2023-08-12T06:11:52;100739.34;;;21.67;100.00
11114;BME280;5610;52.154;9.198;2023-08-12T06:14:37;100750.22;;;21.75;100.00
11114;BME280;5610;52.154;9.198;2023-08-12T06:17:23;100741.25;;;21.83;100.00
11114;BME280;5610;52.154;9.198;2023-08-12T06:20:09;100740.63;;;21.97;100.00
11114;BME280;5610;52.154;9.198;2023-08-12T06:22:55;100736.59;;;22.09;100.00
11114;BME280;5610;52.154;9.198;2023-08-12T06:25:41;100730.69;;;22.22;100.00
11114;BME280;5610;52.154;9.198;2023-08-12T06:28:27;100730.69;;;22.38;100.00
11114;BME280;5610;52.154;9.198;2023-08-12T06:31:12;100732.25;;;22.49;100.00
11114;BME280;5610;52.154;9.198;2023-08-12T06:33:57;100740.75;;;22.62;100.00
11114;BME280;5610;52.154;9.198;2023-08-12T06:36:43;100740.03;;;22.68;100.00
11114;BME280;5610;52.154;9.198;2023-08-12T06:39:29;100733.59;;;22.61;100.00
11114;BME280;5610;52.154;9.198;2023-08-12T06:42:14;100731.91;;;22.52;100.00
11114;BME280;5610;52.154;9.198;2023-08-12T06:45:00;100730.53;;;22.48;100.00
11114;BME280;5610;52.154;9.198;2023-08-12T06:47:47;100721.53;;;22.39;100.00
11114;BME280;5610;52.154;9.198;2023-08-12T06:50:32;100720.50;;;22.32;100.00
11114;BME280;5610;52.154;9.198;2023-08-12T06:53:18;100720.69;;;22.23;100.00
11114;BME280;5610;52.154;9.198;2023-08-12T06:56:05;100723.41;;;22.14;100.00
11114;BME280;5610;52.154;9.198;2023-08-12T06:58:50;100714.22;;;22.15;100.00
11114;BME280;5610;52.154;9.198;2023-08-12T07:01:35;100715.09;;;22.16;100.00
11114;BME280;5610;52.154;9.198;2023-08-12T07:04:20;100703.03;;;22.18;100.00
11114;BME280;5610;52.154;9.198;2023-08-12T07:07:06;100701.03;;;22.20;100.00
11114;BME280;5610;52.154;9.198;2023-08-12T07:09:50;100696.94;;;22.25;100.00
11114;BME280;5610;52.154;9.198;2023-08-12T07:12:37;100703.22;;;22.25;100.00
11114;BME280;5610;52.154;9.198;2023-08-12T07:15:22;100700.00;;;22.13;100.00
11114;BME280;5610;52.154;9.198;2023-08-12T07:18:07;100699.66;;;22.16;100.00
11114;BME280;5610;52.154;9.198;2023-08-12T07:20:53;100696.59;;;22.19;100.00
11114;BME280;5610;52.154;9.198;2023-08-12T07:23:37;100696.25;;;22.31;100.00
11114;BME280;5610;52.154;9.198;2023-08-12T07:26:22;100685.56;;;22.37;100.00
11114;BME280;5610;52.154;9.198;2023-08-12T07:29:09;100694.22;;;22.41;100.00
11114;BME280;5610;52.154;9.198;2023-08-12T07:31:55;100690.50;;;22.50;100.00
11114;BME280;5610;52.154;9.198;2023-08-12T07:34:40;100686.75;;;22.51;100.00
11114;BME280;5610;52.154;9.198;2023-08-12T07:37:26;100696.75;;;22.59;100.00
11114;BME280;5610;52.154;9.198;2023-08-12T07:40:11;100696.09;;;22.32;100.00
11114;BME280;5610;52.154;9.198;2023-08-12T07:42:56;100690.16;;;22.45;100.00
11114;BME280;5610;52.154;9.198;2023-08-12T07:45:43;100687.59;;;22.52;100.00
11114;BME280;5610;52.154;9.198;2023-08-12T07:48:28;100694.56;;;22.62;100.00
11114;BME280;5610;52.154;9.198;2023-08-12T07:51:13;100701.31;;;22.74;100.00
11114;BME280;5610;52.154;9.198;2023-08-12T07:53:58;100704.19;;;22.81;100.00
11114;BME280;5610;52.154;9.198;2023-08-12T07:56:44;100698.97;;;22.88;100.00
11114;BME280;5610;52.154;9.198;2023-08-12T07:59:29;100695.53;;;23.02;100.00
11114;BME280;5610;52.154;9.198;2023-08-12T08:02:16;100701.28;;;23.15;100.00
11114;BME280;5610;52.154;9.198;2023-08-12T08:05:01;100695.06;;;23.38;100.00
11114;BME280;5610;52.154;9.198;2023-08-12T08:07:46;100696.16;;;23.20;100.00
11114;BME280;5610;52.154;9.198;2023-08-12T08:10:32;100699.88;;;23.27;100.00
11114;BME280;5610;52.154;9.198;2023-08-12T08:13:17;100693.16;;;23.46;100.00
11114;BME280;5610;52.154;9.198;2023-08-12T08:16:02;100692.72;;;23.35;100.00
11114;BME280;5610;52.154;9.198;2023-08-12T08:18:49;100692.13;;;23.08;100.00
11114;BME280;5610;52.154;9.198;2023-08-12T08:21:35;100699.06;;;23.11;100.00
11114;BME280;5610;52.154;9.198;2023-08-12T08:24:20;100689.94;;;22.95;100.00
11114;BME280;5610;52.154;9.198;2023-08-12T08:27:05;100694.03;;;22.75;100.00
11114;BME280;5610;52.154;9.198;2023-08-12T08:29:50;100692.84;;;22.61;100.00
11114;BME280;5610;52.154;9.198;2023-08-12T08:32:36;100697.09;;;22.88;100.00
11114;BME280;5610;52.154;9.198;2023-08-12T08:35:22;100693.16;;;23.07;100.00
11114;BME280;5610;52.154;9.198;2023-08-12T08:38:08;100692.03;;;23.33;100.00
11114;BME280;5610;52.154;9.198;2023-08-12T08:40:53;100685.72;;;23.79;100.00
11114;BME280;5610;52.154;9.198;2023-08-12T08:43:41;100686.09;;;24.45;100.00
11114;BME280;5610;52.154;9.198;2023-08-12T08:46:27;100690.91;;;24.96;100.00
11114;BME280;5610;52.154;9.198;2023-08-12T08:49:14;100679.00;;;25.11;100.00
11114;BME280;5610;52.154;9.198;2023-08-12T08:52:01;100681.53;;;25.28;100.00
11114;BME280;5610;52.154;9.198;2023-08-12T08:54:47;100677.13;;;25.12;100.00
11114;BME280;5610;52.154;9.198;2023-08-12T08:57:32;100679.06;;;25.47;100.00
11114;BME280;5610;52.154;9.198;2023-08-12T09:00:18;100676.78;;;25.66;100.00
11114;BME280;5610;52.154;9.198;2023-08-12T09:03:05;100670.19;;;25.75;100.00
11114;BME280;5610;52.154;9.198;2023-08-12T09:05:51;100657.00;;;25.64;100.00
11114;BME280;5610;52.154;9.198;2023-08-12T09:08:41;100646.72;;;25.44;100.00
11114;BME280;5610;52.154;9.198;2023-08-12T09:11:29;100647.75;;;25.29;100.00
11114;BME280;5610;52.154;9.198;2023-08-12T09:14:15;100646.53;;;25.31;100.00
11114;BME280;5610;52.154;9.198;2023-08-12T09:17:01;100641.75;;;25.33;100.00
11114;BME280;5610;52.154;9.198;2023-08-12T09:19:46;100634.19;;;25.35;100.00
11114;BME280;5610;52.154;9.198;2023-08-12T09:22:31;100628.09;;;25.33;100.00
11114;BME280;5610;52.154;9.198;2023-08-12T09:25:20;100633.56;;;25.18;100.00
11114;BME280;5610;52.154;9.198;2023-08-12T09:28:06;100635.72;;;25.08;100.00
11114;BME280;5610;52.154;9.198;2023-08-12T09:30:54;100636.44;;;24.58;100.00
11114;BME280;5610;52.154;9.198;2023-08-12T09:33:39;100645.22;;;24.68;100.00
11114;BME280;5610;52.154;9.198;2023-08-12T09:36:27;100645.75;;;24.63;100.00
11114;BME280;5610;52.154;9.198;2023-08-12T09:39:13;100639.84;;;24.75;100.00
11114;BME280;5610;52.154;9.198;2023-08-12T09:42:00;100652.06;;;24.93;100.00
11114;BME280;5610;52.154;9.198;2023-08-12T09:44:45;100657.63;;;25.30;100.00
11114;BME280;5610;52.154;9.198;2023-08-12T09:47:33;100650.69;;;25.63;100.00
11114;BME280;5610;52.154;9.198;2023-08-12T09:50:20;100645.91;;;26.01;100.00
11114;BME280;5610;52.154;9.198;2023-08-12T09:53:06;100655.09;;;26.00;100.00
11114;BME280;5610;52.154;9.198;2023-08-12T09:55:52;100651.41;;;26.29;100.00
11114;BME280;5610;52.154;9.198;2023-08-12T09:58:41;100649.44;;;27.01;100.00
11114;BME280;5610;52.154;9.198;2023-08-12T10:01:28;100643.69;;;27.72;100.00
11114;BME280;5610;52.154;9.198;2023-08-12T10:04:14;100642.34;;;28.49;100.00
11114;BME280;5610;52.154;9.198;2023-08-12T10:07:02;100630.72;;;29.51;100.00
11114;BME280;5610;52.154;9.198;2023-08-12T10:09:48;100619.59;;;30.09;100.00
11114;BME280;5610;52.154;9.198;2023-08-12T10:12:34;100609.81;;;30.88;100.00
11114;BME280;5610;52.154;9.198;2023-08-12T10:15:22;100609.13;;;30.74;100.00
11114;BME280;5610;52.154;9.198;2023-08-12T10:18:08;100596.50;;;31.40;100.00
11114;BME280;5610;52.154;9.198;2023-08-12T10:20:54;100576.69;;;31.13;100.00
11114;BME280;5610;52.154;9.198;2023-08-12T10:23:42;100565.16;;;31.04;100.00
11114;BME280;5610;52.154;9.198;2023-08-12T10:26:29;100572.00;;;30.58;100.00
11114;BME280;5610;52.154;9.198;2023-08-12T10:29:15;100575.16;;;30.37;100.00
11114;BME280;5610;52.154;9.198;2023-08-12T10:32:02;100569.06;;;30.97;100.00
11114;BME280;5610;52.154;9.198;2023-08-12T10:34:54;100574.66;;;31.98;97.88
11114;BME280;5610;52.154;9.198;2023-08-12T10:37:39;100562.59;;;32.23;91.02
11114;BME280;5610;52.154;9.198;2023-08-12T10:40:24;100563.59;;;32.52;86.80
11114;BME280;5610;52.154;9.198;2023-08-12T10:43:11;100568.56;;;33.71;82.18
11114;BME280;5610;52.154;9.198;2023-08-12T10:45:57;100560.56;;;34.92;74.89
11114;BME280;5610;52.154;9.198;2023-08-12T10:48:56;100556.22;;;35.23;63.68
11114;BME280;5610;52.154;9.198;2023-08-12T10:51:44;100563.38;;;35.19;65.14
11114;BME280;5610;52.154;9.198;2023-08-12T10:54:30;100556.41;;;36.24;56.95
11114;BME280;5610;52.154;9.198;2023-08-12T10:57:15;100560.25;;;37.08;56.92
11114;BME280;5610;52.154;9.198;2023-08-12T11:00:02;100547.03;;;38.63;51.97
11114;BME280;5610;52.154;9.198;2023-08-12T11:02:49;100534.47;;;39.40;49.95
11114;BME280;5610;52.154;9.198;2023-08-12T11:05:37;100558.06;;;37.20;51.59
11114;BME280;5610;52.154;9.198;2023-08-12T11:08:26;100559.38;;;35.32;55.98
11114;BME280;5610;52.154;9.198;2023-08-12T11:11:19;100545.94;;;33.74;63.65
11114;BME280;5610;52.154;9.198;2023-08-12T11:14:11;100543.75;;;31.96;77.16
11114;BME280;5610;52.154;9.198;2023-08-12T11:16:58;100547.06;;;30.78;92.18
11114;BME280;5610;52.154;9.198;2023-08-12T11:19:44;100542.03;;;29.82;100.00
11114;BME280;5610;52.154;9.198;2023-08-12T11:22:31;100538.13;;;29.65;100.00
11114;BME280;5610;52.154;9.198;2023-08-12T11:25:17;100546.69;;;29.81;100.00
11114;BME280;5610;52.154;9.198;2023-08-12T11:28:03;100547.75;;;30.05;100.00
11114;BME280;5610;52.154;9.198;2023-08-12T11:30:49;100542.06;;;30.00;100.00
11114;BME280;5610;52.154;9.198;2023-08-12T11:33:34;100539.03;;;30.08;100.00
11114;BME280;5610;52.154;9.198;2023-08-12T11:36:19;100551.44;;;29.93;100.00
11114;BME280;5610;52.154;9.198;2023-08-12T11:39:06;100547.56;;;29.37;100.00
11114;BME280;5610;52.154;9.198;2023-08-12T11:41:51;100537.88;;;28.83;100.00
11114;BME280;5610;52.154;9.198;2023-08-12T11:44:36;100534.38;;;28.50;100.00
11114;BME280;5610;52.154;9.198;2023-08-12T11:47:21;100534.16;;;28.25;100.00
11114;BME280;5610;52.154;9.198;2023-08-12T11:50:08;100516.41;;;28.67;100.00
11114;BME280;5610;52.154;9.198;2023-08-12T11:52:55;100514.94;;;29.61;100.00
11114;BME280;5610;52.154;9.198;2023-08-12T11:55:42;100507.16;;;29.83;100.00
11114;BME280;5610;52.154;9.198;2023-08-12T11:58:35;100508.00;;;29.83;100.00
11114;BME280;5610;52.154;9.198;2023-08-12T12:01:21;100508.56;;;30.17;100.00
11114;BME280;5610;52.154;9.198;2023-08-12T12:04:09;100505.56;;;31.28;97.21
11114;BME280;5610;52.154;9.198;2023-08-12T12:06:55;100504.75;;;32.75;83.77
11114;BME280;5610;52.154;9.198;2023-08-12T12:09:43;100509.84;;;33.64;73.21
11114;BME280;5610;52.154;9.198;2023-08-12T12:12:29;100509.44;;;33.72;68.21
11114;BME280;5610;52.154;9.198;2023-08-12T12:15:15;100508.81;;;32.84;69.24
11114;BME280;5610;52.154;9.198;2023-08-12T12:18:00;100504.94;;;33.09;71.16
11114;BME280;5610;52.154;9.198;2023-08-12T12:20:55;100505.03;;;33.14;68.68
11114;BME280;5610;52.154;9.198;2023-08-12T12:23:40;100489.19;;;31.75;71.06
11114;BME280;5610;52.154;9.198;2023-08-12T12:26:25;100499.28;;;30.73;81.62
11114;BME280;5610;52.154;9.198;2023-08-12T12:29:12;100501.34;;;30.41;85.39
11114;BME280;5610;52.154;9.198;2023-08-12T12:31:58;100485.28;;;32.30;76.79
11114;BME280;5610;52.154;9.198;2023-08-12T12:34:43;100470.13;;;34.59;65.20
11114;BME280;5610;52.154;9.198;2023-08-12T12:37:28;100471.28;;;35.34;57.79
11114;BME280;5610;52.154;9.198;2023-08-12T12:40:13;100473.75;;;34.21;60.47
11114;BME280;5610;52.154;9.198;2023-08-12T12:42:58;100471.19;;;35.23;58.73
11114;BME280;5610;52.154;9.198;2023-08-12T12:45:45;100474.38;;;36.96;53.56
11114;BME280;5610;52.154;9.198;2023-08-12T12:48:30;100474.03;;;38.76;48.86
11114;BME280;5610;52.154;9.198;2023-08-12T12:51:15;100461.84;;;42.40;42.70
11114;BME280;5610;52.154;9.198;2023-08-12T12:54:01;100456.44;;;44.50;36.50
11114;BME280;5610;52.154;9.198;2023-08-12T12:56:46;100467.63;;;42.98;38.87
11114;BME280;5610;52.154;9.198;2023-08-12T12:59:31;100467.06;;;39.96;42.02
11114;BME280;5610;52.154;9.198;2023-08-12T13:02:18;100469.84;;;39.67;42.08
11114;BME280;5610;52.154;9.198;2023-08-12T13:05:04;100472.88;;;39.37;42.77
11114;BME280;5610;52.154;9.198;2023-08-12T13:07:49;100477.72;;;35.66;48.73
11114;BME280;5610;52.154;9.198;2023-08-12T13:10:34;100471.00;;;34.21;51.99
11114;BME280;5610;52.154;9.198;2023-08-12T13:13:18;100475.94;;;33.68;54.96
11114;BME280;5610;52.154;9.198;2023-08-12T13:16:04;100484.97;;;33.47;56.16
11114;BME280;5610;52.154;9.198;2023-08-12T13:18:50;100482.06;;;32.96;56.73
11114;BME280;5610;52.154;9.198;2023-08-12T13:21:36;100494.50;;;31.47;61.73
11114;BME280;5610;52.154;9.198;2023-08-12T13:24:21;100490.50;;;30.02;70.75
11114;BME280;5610;52.154;9.198;2023-08-12T13:27:06;100488.19;;;30.24;73.04
11114;BME280;5610;52.154;9.198;2023-08-12T13:29:51;100492.44;;;31.30;72.71
11114;BME280;5610;52.154;9.198;2023-08-12T13:32:36;100491.16;;;32.33;65.81
11114;BME280;5610;52.154;9.198;2023-08-12T13:35:23;100480.03;;;31.93;63.36
11114;BME280;5610;52.154;9.198;2023-08-12T13:38:08;100492.09;;;31.80;65.40
11114;BME280;5610;52.154;9.198;2023-08-12T13:40:53;100501.97;;;30.79;69.05
11114;BME280;5610;52.154;9.198;2023-08-12T13:43:38;100489.66;;;30.27;72.54
11114;BME280;5610;52.154;9.198;2023-08-12T13:46:23;100493.03;;;31.14;69.76
11114;BME280;5610;52.154;9.198;2023-08-12T13:49:09;100487.66;;;31.91;66.41
11114;BME280;5610;52.154;9.198;2023-08-12T13:51:57;100483.88;;;33.19;62.61
11114;BME280;5610;52.154;9.198;2023-08-12T13:54:43;100487.34;;;33.72;58.07
11114;BME280;5610;52.154;9.198;2023-08-12T13:57:28;100491.53;;;34.08;60.03
11114;BME280;5610;52.154;9.198;2023-08-12T14:00:13;100485.38;;;33.89;60.19
11114;BME280;5610;52.154;9.198;2023-08-12T14:03:00;100493.28;;;32.55;58.57
11114;BME280;5610;52.154;9.198;2023-08-12T14:05:45;100487.50;;;33.65;58.64
11114;BME280;5610;52.154;9.198;2023-08-12T14:08:32;100484.56;;;33.88;59.81
11114;BME280;5610;52.154;9.198;2023-08-12T14:11:17;100482.72;;;33.60;59.19
11114;BME280;5610;52.154;9.198;2023-08-12T14:14:04;100484.56;;;32.98;60.20
11114;BME280;5610;52.154;9.198;2023-08-12T14:16:49;100493.41;;;32.13;62.01
11114;BME280;5610;52.154;9.198;2023-08-12T14:19:35;100486.81;;;31.90;67.21
11114;BME280;5610;52.154;9.198;2023-08-12T14:22:20;100499.63;;;31.31;69.60
11114;BME280;5610;52.154;9.198;2023-08-12T14:25:07;100505.34;;;30.81;73.31
11114;BME280;5610;52.154;9.198;2023-08-12T14:27:52;100519.63;;;30.10;78.58
11114;BME280;5610;52.154;9.198;2023-08-12T14:30:38;100537.38;;;29.51;88.98